Time;durP1;ratioP1;P1;durP2;ratioP2;P2;SDS_P1;SDS_P2;PMS_P1;PMS_P2;Temp;Humidity;BMP_temperature;BMP_pressure;BME280_temperature;BME280_humidity;BME280_pressure;Samples;Min_cycle;Max_cycle;Signal;HPM_P1;HPM_P2
2022/05/14 00:01:27;;;;;;;8.65;3.90;;;;;;;12.77;63.85;101833.94;3584231;40;20072;-64
2022/05/14 00:03:53;;;;;;;14.68;3.95;;;;;;;12.78;63.83;101837.50;3579113;40;20123;-64
2022/05/14 00:06:23;;;;;;;12.93;3.78;;;;;;;12.57;64.58;101806.34;3577593;40;20072;-64
2022/05/14 00:08:50;;;;;;;11.65;4.32;;;;;;;12.49;64.64;101801.34;3578119;40;20080;-63
2022/05/14 00:14:04;;;;;;;13.48;4.53;;;;;;;12.59;65.64;101832.28;3581154;40;20325;-64
2022/05/14 00:16:33;;;;;;;12.43;4.50;;;;;;;11.92;65.70;101736.13;3574598;40;20131;-64
2022/05/14 00:19:01;;;;;;;11.57;4.68;;;;;;;12.24;65.80;101800.00;3578770;40;20099;-65
2022/05/14 00:21:27;;;;;;;14.20;5.10;;;;;;;12.38;66.25;101833.41;3581149;40;20312;-64
2022/05/14 00:23:53;;;;;;;11.95;4.75;;;;;;;12.35;67.26;101836.28;3582112;40;20043;-64
2022/05/14 00:26:21;;;;;;;14.07;5.45;;;;;;;12.36;66.98;101833.50;3573861;40;20056;-63
2022/05/14 00:28:47;;;;;;;11.85;4.97;;;;;;;12.07;67.23;101781.13;3579915;40;20045;-64
2022/05/14 00:31:13;;;;;;;16.88;5.30;;;;;;;12.35;66.93;101818.28;3577305;40;20410;-64
2022/05/14 00:33:39;;;;;;;11.07;4.65;;;;;;;12.34;67.21;101815.63;3580392;40;20401;-64
2022/05/14 00:36:06;;;;;;;13.98;5.07;;;;;;;12.31;66.74;101816.69;3578881;39;20061;-64
2022/05/14 00:38:31;;;;;;;11.15;5.20;;;;;;;12.28;66.47;101812.34;3578805;40;20061;-64
2022/05/14 00:41:02;;;;;;;11.45;5.40;;;;;;;12.31;67.12;101820.25;3586804;39;20489;-64
2022/05/14 00:43:29;;;;;;;12.38;5.32;;;;;;;12.29;66.84;101816.78;3585628;40;20052;-64
2022/05/14 00:46:15;;;;;;;16.50;5.00;;;;;;;12.24;66.60;101816.16;3580441;40;20055;-64
2022/05/14 00:48:47;;;;;;;11.75;4.93;;;;;;;12.21;66.65;101816.31;3582338;40;20433;-64
2022/05/14 00:51:19;;;;;;;12.75;4.90;;;;;;;12.20;66.63;101813.69;3582885;39;20121;-64
2022/05/14 00:53:53;;;;;;;12.57;5.07;;;;;;;12.15;66.79;101813.94;3578910;40;20049;-64
2022/05/14 00:56:28;;;;;;;13.00;5.20;;;;;;;12.12;66.45;101816.81;3579669;40;20136;-64
2022/05/14 00:59:09;;;;;;;10.70;4.72;;;;;;;12.06;67.14;101822.50;3579443;40;20053;-64
2022/05/14 01:01:37;;;;;;;15.20;5.50;;;;;;;12.03;66.92;101818.16;3580272;40;20118;-64
2022/05/14 01:04:05;;;;;;;11.00;5.00;;;;;;;12.03;66.68;101822.66;3581639;39;20048;-64
2022/05/14 01:06:35;;;;;;;8.18;4.53;;;;;;;11.98;66.52;101817.50;3582246;40;20068;-64
2022/05/14 01:09:04;;;;;;;11.25;4.65;;;;;;;11.97;67.23;101814.91;3577703;40;20065;-63
2022/05/14 01:11:33;;;;;;;12.15;4.95;;;;;;;11.90;66.59;101827.81;3582320;40;20399;-63
2022/05/14 01:13:59;;;;;;;12.80;4.60;;;;;;;11.89;67.21;101822.50;3579578;39;20383;-64
2022/05/14 01:16:24;;;;;;;10.45;4.43;;;;;;;11.69;67.10;101794.72;3584519;40;20166;-64
2022/05/14 01:18:50;;;;;;;8.07;4.43;;;;;;;11.85;66.96;101824.47;3582495;40;20094;-63
2022/05/14 01:21:24;;;;;;;10.55;4.30;;;;;;;11.84;67.27;101831.69;3573570;40;20061;-63
2022/05/14 01:27:04;;;;;;;15.38;4.55;;;;;;;11.65;66.98;101806.63;3575298;40;20418;-64
2022/05/14 01:29:30;;;;;;;7.28;3.88;;;;;;;11.69;66.44;101815.41;3580331;40;20052;-65
2022/05/14 01:31:56;;;;;;;12.20;4.00;;;;;;;11.63;67.10;101813.88;3582274;39;20051;-63
2022/05/14 01:34:30;;;;;;;11.77;4.00;;;;;;;11.66;66.23;101819.13;3585378;40;20051;-64
2022/05/14 01:36:56;;;;;;;14.15;4.82;;;;;;;11.57;66.98;101803.41;3583739;40;20112;-63
2022/05/14 01:39:23;;;;;;;13.55;4.55;;;;;;;11.61;66.31;101815.81;3579709;40;20061;-64
2022/05/14 01:41:49;;;;;;;14.55;4.10;;;;;;;11.48;66.46;101799.41;3584989;40;20137;-65
2022/05/14 01:44:15;;;;;;;10.68;3.78;;;;;;;11.59;65.83;101823.06;3584120;39;20088;-63
2022/05/14 01:46:41;;;;;;;10.57;3.63;;;;;;;11.55;66.58;101806.22;3582335;40;20071;-64
2022/05/14 01:49:08;;;;;;;13.43;4.28;;;;;;;11.54;66.03;101823.28;3581750;40;20120;-63
2022/05/14 01:51:34;;;;;;;6.95;3.75;;;;;;;11.52;65.53;101821.66;3582428;40;20059;-63
2022/05/14 01:54:00;;;;;;;16.08;4.05;;;;;;;11.49;66.26;101827.19;3584109;39;20088;-64
2022/05/14 01:56:26;;;;;;;12.95;3.70;;;;;;;11.31;65.41;101797.53;3579657;40;20419;-64
2022/05/14 01:58:52;;;;;;;13.88;4.22;;;;;;;11.48;65.17;101823.63;3584343;40;20097;-65
2022/05/14 02:01:39;;;;;;;11.85;3.67;;;;;;;11.50;65.61;101828.91;3581453;40;20064;-64
2022/05/14 02:04:11;;;;;;;11.00;4.28;;;;;;;11.51;65.08;101827.97;3577273;40;20083;-64
2022/05/14 02:06:38;;;;;;;10.63;3.60;;;;;;;11.52;65.41;101824.34;3584112;40;20064;-64
2022/05/14 02:09:08;;;;;;;9.38;3.58;;;;;;;11.54;64.99;101833.19;3582754;39;20054;-64
2022/05/14 02:11:35;;;;;;;7.32;3.50;;;;;;;11.50;65.48;101823.53;3582312;40;20049;-64
2022/05/14 02:14:02;;;;;;;10.32;3.25;;;;;;;11.47;65.78;101823.69;3582347;39;20120;-65
2022/05/14 02:16:28;;;;;;;9.88;3.70;;;;;;;11.47;65.91;101823.69;3580209;40;20060;-64
2022/05/14 02:18:53;;;;;;;5.25;3.13;;;;;;;11.46;64.70;101824.66;3575880;40;20059;-64
2022/05/14 02:21:20;;;;;;;11.48;3.50;;;;;;;11.47;64.83;101823.69;3582770;40;20181;-64
2022/05/14 02:23:47;;;;;;;8.27;3.65;;;;;;;11.44;65.34;101824.69;3585227;40;20280;-64
2022/05/14 02:26:13;;;;;;;11.18;3.50;;;;;;;11.48;65.17;101826.31;3577081;40;20118;-64
2022/05/14 02:28:40;;;;;;;10.40;3.13;;;;;;;11.48;65.20;101826.31;3583093;40;20052;-64
2022/05/14 02:31:07;;;;;;;8.65;4.15;;;;;;;11.48;65.06;101828.13;3584438;39;20109;-65
2022/05/14 02:33:33;;;;;;;10.32;3.67;;;;;;;11.46;64.73;101832.72;3582557;40;20088;-65
2022/05/14 02:35:59;;;;;;;8.20;3.80;;;;;;;11.43;65.13;101831.06;3584148;39;20351;-64
2022/05/14 02:38:27;;;;;;;9.40;3.25;;;;;;;11.42;65.36;101829.31;3582480;40;20049;-64
2022/05/14 02:40:53;;;;;;;8.38;3.60;;;;;;;11.42;65.20;101836.50;3587241;40;20056;-64
2022/05/14 02:43:19;;;;;;;9.38;3.47;;;;;;;11.38;64.95;101833.97;3585629;40;20063;-64
2022/05/14 02:45:44;;;;;;;9.95;3.35;;;;;;;11.38;65.15;101836.66;3587128;40;20307;-64
2022/05/14 02:48:11;;;;;;;7.32;3.60;;;;;;;11.36;64.56;101832.31;3582413;40;20064;-65
2022/05/14 02:50:37;;;;;;;10.05;3.85;;;;;;;11.33;65.69;101833.31;3579910;40;20052;-64
2022/05/14 02:53:04;;;;;;;8.15;3.53;;;;;;;11.33;65.63;101837.84;3579099;40;20046;-64
2022/05/14 02:55:30;;;;;;;6.35;3.75;;;;;;;11.31;65.65;101837.91;3583063;40;20307;-65
2022/05/14 02:57:56;;;;;;;9.23;2.83;;;;;;;11.21;65.75;101824.97;3582773;40;20141;-65
2022/05/14 03:00:23;;;;;;;8.75;3.50;;;;;;;11.29;65.07;101831.72;3581159;40;20066;-64
2022/05/14 03:02:48;;;;;;;5.18;3.53;;;;;;;11.10;65.21;101809.31;3586076;40;20060;-65
2022/05/14 03:05:19;;;;;;;7.95;3.65;;;;;;;11.22;65.33;101838.34;3579939;40;20056;-65
2022/05/14 03:07:45;;;;;;;8.20;3.30;;;;;;;11.18;65.92;101834.06;3577439;40;20055;-64
2022/05/14 03:10:12;;;;;;;9.77;3.83;;;;;;;10.94;65.69;101793.03;3582684;40;20306;-65
2022/05/14 03:12:39;;;;;;;11.02;3.72;;;;;;;11.01;65.79;101815.19;3581187;40;20284;-65
2022/05/14 03:15:09;;;;;;;5.03;3.03;;;;;;;11.09;65.57;101834.50;3574814;40;20063;-64
2022/05/14 03:17:34;;;;;;;9.25;3.55;;;;;;;11.11;65.43;101832.63;3579339;40;20052;-64
2022/05/14 03:20:08;;;;;;;8.63;3.50;;;;;;;11.08;65.70;101828.25;3578029;39;20056;-64
2022/05/14 03:22:39;;;;;;;7.32;3.30;;;;;;;11.08;65.77;101830.06;3583788;40;20064;-63
2022/05/14 03:25:07;;;;;;;10.27;3.72;;;;;;;11.07;66.12;101833.72;3584254;40;20040;-65
2022/05/14 03:27:33;;;;;;;9.70;3.35;;;;;;;11.05;66.23;101828.41;3579879;40;20068;-65
2022/05/14 03:29:59;;;;;;;8.82;3.70;;;;;;;11.02;65.45;101831.22;3587695;39;20051;-65
2022/05/14 03:32:26;;;;;;;8.43;3.65;;;;;;;11.04;65.65;101831.19;3585580;39;20398;-64
2022/05/14 03:34:54;;;;;;;7.65;3.42;;;;;;;10.93;65.95;101808.31;3588551;40;20050;-64
2022/05/14 03:37:23;;;;;;;9.30;3.70;;;;;;;10.95;66.14;101816.34;3581311;39;20052;-64
2022/05/14 03:39:48;;;;;;;10.38;3.97;;;;;;;11.03;65.85;101834.78;3581684;40;20052;-64
2022/05/14 03:42:14;;;;;;;8.80;3.35;;;;;;;10.98;65.87;101828.78;3584229;40;20401;-64
2022/05/14 03:44:40;;;;;;;10.23;5.43;;;;;;;10.97;65.75;101829.69;3583644;40;20055;-64
2022/05/14 03:47:05;;;;;;;8.20;3.80;;;;;;;10.96;66.08;101830.66;3583967;40;20047;-64
2022/05/14 03:49:31;;;;;;;7.07;3.60;;;;;;;10.91;66.52;101829.06;3577131;40;20108;-64
2022/05/14 03:51:56;;;;;;;9.00;4.00;;;;;;;10.82;66.19;101824.09;3588104;39;20043;-64
2022/05/14 03:54:22;;;;;;;6.68;3.55;;;;;;;10.87;67.10;101830.13;3585674;40;20380;-65
2022/05/14 03:56:47;;;;;;;8.40;4.03;;;;;;;10.88;66.33;101829.22;3583406;40;20057;-64
2022/05/14 03:59:13;;;;;;;12.85;4.32;;;;;;;10.76;66.61;101815.47;3575873;39;20053;-65
2022/05/14 04:01:39;;;;;;;11.52;3.90;;;;;;;10.86;66.58;101833.78;3575751;40;20303;-65
2022/05/14 04:04:05;;;;;;;10.95;4.13;;;;;;;10.81;67.28;101818.78;3584940;39;20059;-65
2022/05/14 04:06:31;;;;;;;8.07;3.80;;;;;;;10.81;66.76;101829.53;3579083;40;20052;-65
2022/05/14 04:08:57;;;;;;;9.23;3.65;;;;;;;10.76;67.21;101827.09;3584142;39;20051;-65
2022/05/14 04:11:23;;;;;;;13.48;4.28;;;;;;;10.80;66.71;101838.56;3574284;40;20111;-65
2022/05/14 04:13:48;;;;;;;10.80;3.78;;;;;;;10.81;67.57;101838.47;3587223;40;20071;-65
2022/05/14 04:16:14;;;;;;;6.90;3.83;;;;;;;10.80;66.74;101836.75;3586835;39;20059;-64
2022/05/14 04:18:40;;;;;;;16.75;4.30;;;;;;;10.78;67.65;101832.38;3588194;40;20053;-63
2022/05/14 04:21:05;;;;;;;9.13;3.70;;;;;;;10.74;68.02;101833.47;3580481;39;20056;-63
2022/05/14 04:23:32;;;;;;;7.63;4.07;;;;;;;10.80;67.66;101850.19;3583866;40;20289;-63
2022/05/14 04:26:00;;;;;;;10.00;4.00;;;;;;;10.80;67.60;101842.13;3584329;39;20060;-63
2022/05/14 04:28:26;;;;;;;12.02;4.10;;;;;;;10.82;67.08;101840.25;3585676;40;20113;-63
2022/05/14 04:30:54;;;;;;;8.82;3.90;;;;;;;10.83;67.63;101839.28;3586259;40;20439;-63
2022/05/14 04:33:20;;;;;;;12.27;4.20;;;;;;;10.86;67.03;101843.66;3582971;40;20054;-64
2022/05/14 04:35:47;;;;;;;7.10;3.97;;;;;;;10.86;67.35;101844.53;3588463;40;20416;-64
2022/05/14 04:38:13;;;;;;;6.90;3.72;;;;;;;10.87;67.30;101840.88;3582038;39;20070;-63
2022/05/14 04:40:39;;;;;;;10.10;4.35;;;;;;;10.88;67.97;101845.34;3590038;40;20081;-63
2022/05/14 04:43:08;;;;;;;7.85;3.85;;;;;;;10.78;67.82;101825.19;3583245;39;20137;-63
2022/05/14 04:45:33;;;;;;;11.00;4.07;;;;;;;10.88;67.50;101837.28;3583615;40;20160;-63
2022/05/14 04:47:59;;;;;;;10.52;4.10;;;;;;;10.88;68.14;101834.59;3585434;39;20403;-64
2022/05/14 04:50:25;;;;;;;10.40;3.97;;;;;;;10.96;67.95;101852.19;3580522;40;20048;-64
2022/05/14 04:52:51;;;;;;;8.45;4.10;;;;;;;10.96;67.48;101854.88;3585912;40;20044;-63
2022/05/14 04:55:16;;;;;;;11.65;4.70;;;;;;;11.00;68.17;101851.06;3584763;40;20432;-65
2022/05/14 04:57:43;;;;;;;10.13;4.95;;;;;;;11.04;67.65;101858.09;3579214;40;20072;-65
2022/05/14 05:00:13;;;;;;;13.52;4.53;;;;;;;10.54;67.48;101761.81;3579572;40;20053;-64
2022/05/14 05:05:25;;;;;;;9.80;5.53;;;;;;;11.12;68.21;101850.50;3581597;40;20054;-62
2022/05/14 05:07:51;;;;;;;13.40;5.07;;;;;;;11.14;67.39;101854.00;3621179;22;20055;-63
2022/05/14 05:10:17;;;;;;;10.02;4.93;;;;;;;11.14;67.54;101854.00;3587986;40;20414;-61
2022/05/14 05:12:43;;;;;;;14.57;4.72;;;;;;;11.21;67.62;101868.03;3596047;39;20053;-62
2022/05/14 05:15:10;;;;;;;8.65;4.78;;;;;;;11.26;67.88;101861.50;3593126;40;20383;-62
2022/05/14 05:17:36;;;;;;;8.00;4.80;;;;;;;11.30;67.89;101857.69;3583118;40;20307;-62
2022/05/14 05:20:03;;;;;;;9.30;5.05;;;;;;;11.35;68.25;101865.53;3579719;40;20057;-62
2022/05/14 05:22:28;;;;;;;9.98;5.25;;;;;;;11.39;68.08;101865.31;3580590;40;20063;-62
2022/05/14 05:24:54;;;;;;;12.02;5.63;;;;;;;11.43;68.22;101863.34;3585940;40;20053;-62
2022/05/14 05:27:20;;;;;;;12.98;5.50;;;;;;;11.47;68.12;101861.38;3580544;40;20059;-62
2022/05/14 05:29:45;;;;;;;12.45;5.47;;;;;;;11.47;67.43;101859.56;3588223;40;20283;-63
2022/05/14 05:32:11;;;;;;;14.98;5.97;;;;;;;11.49;68.16;101854.13;3585939;40;20124;-63
2022/05/14 05:34:36;;;;;;;14.50;5.70;;;;;;;11.63;68.16;101870.44;3582905;40;20053;-62
2022/05/14 05:37:02;;;;;;;11.80;5.95;;;;;;;11.70;67.82;101868.31;3589948;40;20367;-62
2022/05/14 05:39:27;;;;;;;14.65;7.03;;;;;;;11.83;68.33;101882.94;3586409;40;20056;-62
2022/05/14 05:41:54;;;;;;;18.30;6.47;;;;;;;11.88;67.65;101878.22;3584116;40;20132;-62
2022/05/14 05:44:19;;;;;;;17.40;7.00;;;;;;;11.95;67.90;101878.75;3581562;40;20188;-62
2022/05/14 05:46:45;;;;;;;13.85;7.18;;;;;;;11.99;67.83;101877.69;3586368;40;20070;-63
2022/05/14 05:49:11;;;;;;;17.17;7.40;;;;;;;12.11;67.77;101890.50;3587452;40;20052;-62
2022/05/14 05:51:37;;;;;;;16.88;6.40;;;;;;;12.20;68.24;101891.88;3584756;40;20101;-62
2022/05/14 05:56:46;;;;;;;12.85;6.82;;;;;;;12.32;67.61;101873.22;3578466;40;20118;-62
2022/05/14 05:59:15;;;;;;;16.80;7.43;;;;;;;12.46;67.22;101880.59;3582319;40;20337;-62
2022/05/14 06:01:42;;;;;;;17.00;7.15;;;;;;;12.54;67.54;101882.88;3578510;40;20052;-62
2022/05/14 06:04:07;;;;;;;20.15;7.80;;;;;;;12.63;67.78;101893.19;3577170;40;20058;-61
2022/05/14 06:06:33;;;;;;;18.77;8.27;;;;;;;12.51;67.53;101856.06;3580859;40;20053;-63
2022/05/14 06:09:02;;;;;;;22.52;8.48;;;;;;;12.69;67.74;101881.19;3586825;40;20043;-61
2022/05/14 06:11:30;;;;;;;17.60;8.02;;;;;;;12.80;67.39;101888.72;3579472;40;20072;-64
2022/05/14 06:13:56;;;;;;;16.95;8.27;;;;;;;12.94;67.04;101891.50;3577244;40;20052;-63
2022/05/14 06:16:22;;;;;;;14.27;7.90;;;;;;;13.11;67.44;101888.78;3585206;40;20136;-61
2022/05/14 06:18:47;;;;;;;18.17;7.88;;;;;;;13.23;67.16;101888.09;3580459;40;20057;-63
2022/05/14 06:21:13;;;;;;;18.80;7.72;;;;;;;13.42;66.79;101900.59;3575173;40;20040;-63
2022/05/14 06:23:39;;;;;;;16.23;7.55;;;;;;;13.42;66.31;101876.28;3587287;40;20055;-64
2022/05/14 06:26:05;;;;;;;14.95;8.18;;;;;;;13.66;65.93;101882.97;3582290;40;20061;-63
2022/05/14 06:28:31;;;;;;;15.82;6.88;;;;;;;13.78;65.14;101872.41;3583866;40;20064;-63
2022/05/14 06:30:58;;;;;;;16.38;7.75;;;;;;;14.14;64.74;101905.41;3575050;40;20097;-62
2022/05/14 06:33:26;;;;;;;21.02;8.40;;;;;;;14.33;64.70;101906.97;3577640;40;20122;-63
2022/05/14 06:35:51;;;;;;;16.27;7.55;;;;;;;14.48;64.04;101895.22;3588394;40;20386;-63
2022/05/14 06:38:17;;;;;;;17.80;7.10;;;;;;;14.67;63.13;101905.81;3586680;40;20043;-62
2022/05/14 06:40:44;;;;;;;15.85;7.10;;;;;;;14.92;62.70;101924.13;3574789;40;20366;-63
2022/05/14 06:43:10;;;;;;;14.88;7.28;;;;;;;15.09;62.34;101913.06;3574550;40;20319;-61
2022/05/14 06:45:35;;;;;;;18.13;8.02;;;;;;;15.30;62.35;101915.41;3585085;40;20053;-63
2022/05/14 06:48:02;;;;;;;14.88;7.55;;;;;;;15.47;60.99;101915.16;3586977;40;20071;-64
2022/05/14 06:50:33;;;;;;;19.13;7.72;;;;;;;15.65;61.45;101920.38;3582194;40;20063;-63
2022/05/14 06:53:04;;;;;;;14.73;7.30;;;;;;;15.78;60.50;101927.59;3578329;40;20052;-64
2022/05/14 06:55:36;;;;;;;18.40;7.60;;;;;;;15.93;59.83;101920.31;3586110;40;20381;-63
2022/05/14 06:58:05;;;;;;;15.98;7.53;;;;;;;16.15;59.33;101919.72;3567335;40;20045;-63
2022/05/14 07:00:31;;;;;;;17.30;7.20;;;;;;;16.35;59.22;101921.06;3574777;40;20065;-63
2022/05/14 07:08:28;;;;;;;15.65;7.43;;;;;;;16.75;57.88;101923.78;3579143;40;20114;-63
2022/05/14 07:10:54;;;;;;;21.67;7.72;;;;;;;16.85;57.46;101914.00;3590155;40;20298;-63
2022/05/14 07:13:19;;;;;;;17.02;7.72;;;;;;;17.05;57.47;101925.28;3584114;40;20056;-63
2022/05/14 07:15:45;;;;;;;20.50;8.07;;;;;;;17.11;57.11;101922.13;3587170;40;20130;-64
2022/05/14 07:18:10;;;;;;;20.17;8.25;;;;;;;17.04;56.31;101888.25;3585304;40;20117;-63
2022/05/14 07:20:36;;;;;;;15.95;7.57;;;;;;;17.31;56.36;101909.81;3585656;40;20061;-64
2022/05/14 07:23:03;;;;;;;20.08;7.70;;;;;;;17.49;56.68;101918.47;3587683;40;20125;-64
2022/05/14 07:25:28;;;;;;;17.48;7.38;;;;;;;17.61;54.89;101920.28;3582466;40;20053;-63
2022/05/14 07:27:54;;;;;;;19.70;7.60;;;;;;;17.80;54.54;101928.84;3575804;40;20433;-64
2022/05/14 07:30:21;;;;;;;16.13;6.95;;;;;;;18.01;53.94;101925.47;3584186;40;20047;-64
2022/05/14 07:32:47;;;;;;;16.17;7.57;;;;;;;18.19;54.52;101915.91;3570073;40;20591;-64
2022/05/14 07:35:12;;;;;;;18.17;8.15;;;;;;;18.32;53.59;101916.69;3581636;40;20052;-64
2022/05/14 07:37:48;;;;;;;19.70;8.32;;;;;;;18.45;52.36;101923.91;3581786;40;20052;-63
2022/05/14 07:40:19;;;;;;;17.70;7.32;;;;;;;18.62;53.63;101919.91;3586665;40;20094;-63
2022/05/14 07:43:00;;;;;;;17.08;7.38;;;;;;;18.67;52.41;101896.75;3585603;40;20041;-63
2022/05/14 07:45:34;;;;;;;19.58;7.80;;;;;;;18.91;52.07;101910.31;3574747;40;20075;-63
2022/05/14 07:48:11;;;;;;;13.55;6.93;;;;;;;19.06;50.24;101907.34;3588058;40;20056;-63
2022/05/14 07:50:37;;;;;;;18.65;7.90;;;;;;;19.18;51.61;101914.53;3587767;40;20060;-64
2022/05/14 07:53:03;;;;;;;16.85;7.60;;;;;;;19.21;51.29;101911.56;3584485;40;20065;-63
2022/05/14 07:55:29;;;;;;;18.75;7.80;;;;;;;19.35;50.82;101918.63;3582446;40;20094;-63
2022/05/14 07:57:54;;;;;;;17.83;7.35;;;;;;;19.56;50.11;101916.84;3585254;40;20087;-64
2022/05/14 08:00:20;;;;;;;15.15;7.25;;;;;;;19.77;49.19;101924.28;3587205;40;20108;-64
2022/05/14 08:02:47;;;;;;;15.27;7.50;;;;;;;19.88;48.46;101924.25;3580975;40;20072;-64
2022/05/14 08:05:16;;;;;;;17.08;7.32;;;;;;;19.97;49.24;101914.41;3575904;40;20125;-63
2022/05/14 08:07:41;;;;;;;17.70;6.72;;;;;;;20.05;49.02;101899.13;3583238;40;20295;-62
2022/05/14 08:10:08;;;;;;;16.42;6.60;;;;;;;20.37;47.98;101922.81;3584263;40;20044;-63
2022/05/14 08:12:39;;;;;;;13.98;6.80;;;;;;;20.53;48.49;101930.59;3587010;40;20045;-65
2022/05/14 08:15:07;;;;;;;19.70;7.40;;;;;;;20.60;47.08;101918.97;3587912;40;20363;-64
2022/05/14 08:17:33;;;;;;;16.58;7.35;;;;;;;20.59;47.05;101872.69;3587980;40;20298;-64
2022/05/14 08:19:58;;;;;;;20.95;7.32;;;;;;;20.99;46.57;101923.81;3584269;40;20052;-64
2022/05/14 08:25:09;;;;;;;15.50;6.45;;;;;;;21.19;45.94;101927.53;3585620;40;20146;-64
2022/05/14 08:27:44;;;;;;;14.43;6.63;;;;;;;21.29;46.06;101917.50;3581568;40;20057;-64
2022/05/14 08:30:18;;;;;;;15.77;6.93;;;;;;;21.50;45.83;101907.38;3588452;40;20047;-65
2022/05/14 08:32:44;;;;;;;15.93;7.45;;;;;;;21.62;45.58;101909.97;3586601;40;20056;-64
2022/05/14 08:35:12;;;;;;;19.23;7.75;;;;;;;21.68;45.20;101921.22;3584894;40;20343;-63
2022/05/14 08:37:38;;;;;;;21.08;7.55;;;;;;;21.82;45.45;101925.44;3588244;40;20057;-65
2022/05/14 08:40:32;;;;;;;14.45;6.47;;;;;;;21.87;43.99;101925.00;3589655;40;20055;-65
2022/05/14 08:43:13;;;;;;;18.15;6.78;;;;;;;21.98;44.70;101928.50;3581736;40;20060;-64
2022/05/14 08:45:38;;;;;;;15.60;6.40;;;;;;;22.13;44.21;101908.88;3578364;40;20292;-65
2022/05/14 08:48:24;;;;;;;19.48;5.75;;;;;;;22.30;42.76;101924.66;3584914;40;20058;-63
2022/05/14 08:51:04;;;;;;;15.07;5.65;;;;;;;22.46;42.29;101921.31;3580446;40;20418;-64
2022/05/14 08:53:34;;;;;;;14.48;5.90;;;;;;;22.49;42.27;101921.03;3581182;40;20068;-64
2022/05/14 08:56:25;;;;;;;16.20;5.88;;;;;;;22.55;41.91;101920.44;3577317;40;20075;-65
2022/05/14 08:59:20;;;;;;;15.05;6.13;;;;;;;22.58;42.28;101919.28;3582789;40;20373;-66
2022/05/14 09:01:48;;;;;;;12.98;6.03;;;;;;;22.81;42.31;101920.69;3564308;40;20066;-65
2022/05/14 09:04:17;;;;;;;16.10;6.20;;;;;;;22.97;41.36;101921.97;3585625;40;20051;-64
2022/05/14 09:06:45;;;;;;;18.30;6.15;;;;;;;23.13;40.89;101903.88;3587490;40;20057;-65
2022/05/14 09:09:11;;;;;;;15.02;5.60;;;;;;;23.20;41.12;101920.59;3582819;40;20376;-65
2022/05/14 09:11:41;;;;;;;16.98;6.13;;;;;;;23.44;40.78;101930.13;3585810;40;20037;-64
2022/05/14 09:14:25;;;;;;;14.15;5.50;;;;;;;23.48;40.38;101928.84;3586709;40;20043;-65
2022/05/14 09:17:12;;;;;;;16.80;5.80;;;;;;;23.61;39.85;101921.97;3582545;40;20051;-64
2022/05/14 09:19:43;;;;;;;17.27;5.68;;;;;;;23.95;39.76;101915.00;3586800;40;20057;-64
2022/05/14 09:22:38;;;;;;;14.07;5.30;;;;;;;24.05;39.64;101904.78;3587676;40;20063;-64
2022/05/14 09:25:26;;;;;;;16.00;5.85;;;;;;;24.34;38.58;101923.78;3585032;40;20494;-65
2022/05/14 09:27:58;;;;;;;12.20;5.05;;;;;;;24.60;37.64;101931.22;3581512;40;20058;-65
2022/05/14 09:30:42;;;;;;;11.82;5.47;;;;;;;24.72;37.35;101925.31;3583309;40;20083;-65
2022/05/14 09:33:21;;;;;;;;;;;;;;;24.53;36.88;101889.78;3585698;40;20056;-65
2022/05/14 09:35:56;;;;;;;20.52;5.35;;;;;;;24.16;37.62;101915.53;3587418;40;20002;-65
2022/05/14 09:38:24;;;;;;;13.98;5.70;;;;;;;23.80;38.38;101893.53;3585116;40;20064;-66
2022/05/14 09:40:51;;;;;;;14.13;5.00;;;;;;;23.95;38.82;101912.25;3579694;40;20062;-64
2022/05/14 09:43:17;;;;;;;13.77;5.40;;;;;;;24.21;36.97;101913.19;3583456;40;20376;-67
2022/05/14 09:46:01;;;;;;;16.10;6.10;;;;;;;24.08;38.32;101912.72;3582230;40;20053;-66
2022/05/14 09:48:35;;;;;;;14.48;5.45;;;;;;;23.88;37.28;101909.22;3574657;40;20636;-67
2022/05/14 09:51:09;;;;;;;12.90;5.10;;;;;;;23.92;36.94;101904.31;3584294;40;20118;-63
2022/05/14 09:53:42;;;;;;;12.80;5.10;;;;;;;24.22;37.76;101901.16;3585467;40;20386;-65
2022/05/14 09:56:50;;;;;;;12.10;5.13;;;;;;;24.28;36.13;101873.03;3579784;40;20390;-65
2022/05/14 09:59:54;;;;;;;16.17;4.30;;;;;;;24.63;35.14;101903.41;3584106;40;20055;-66
2022/05/14 10:03:06;;;;;;;12.80;4.28;;;;;;;24.53;34.68;101909.03;3577853;40;20155;-67
2022/05/14 10:05:43;;;;;;;8.45;4.10;;;;;;;24.51;34.67;101913.81;3538469;40;20090;-65
2022/05/14 10:08:31;;;;;;;9.27;4.50;;;;;;;24.45;35.81;101908.94;3576555;40;20082;-65
2022/05/14 10:11:19;;;;;;;12.65;4.93;;;;;;;24.54;35.13;101907.97;3578901;40;20153;-66
2022/05/14 10:14:09;;;;;;;13.45;4.10;;;;;;;24.70;34.84;101916.34;3576142;40;20044;-65
2022/05/14 10:17:11;;;;;;;10.77;3.92;;;;;;;24.90;35.10;101910.66;3578482;40;20048;-65
2022/05/14 10:19:54;;;;;;;14.00;5.07;;;;;;;25.24;34.36;101907.94;3584457;40;20416;-65
2022/05/14 10:29:28;;;;;;;12.60;5.10;;;;;;;25.83;33.09;101895.09;3575410;40;20056;-65
2022/05/14 10:32:09;;;;;;;12.80;4.95;;;;;;;26.00;33.54;101903.38;3582947;40;20054;-65
2022/05/14 10:34:54;;;;;;;13.65;5.57;;;;;;;25.76;33.15;101899.53;3578087;40;20040;-65
2022/05/14 10:37:38;;;;;;;14.90;7.85;;;;;;;25.37;35.03;101908.38;3582142;40;20052;-66
2022/05/14 10:40:34;;;;;;;15.60;5.68;;;;;;;25.21;35.20;101898.16;3574767;40;20323;-63
2022/05/14 10:43:37;;;;;;;14.75;5.47;;;;;;;25.31;33.91;101899.88;3578150;40;20051;-65
2022/05/14 10:46:10;;;;;;;10.43;4.07;;;;;;;25.59;33.85;101908.75;3577287;40;20060;-64
2022/05/14 10:48:57;;;;;;;;;;;;;;;25.50;33.28;101902.38;3575052;40;20088;-65
2022/05/14 10:51:29;;;;;;;15.20;5.38;;;;;;;25.18;33.31;101903.97;3579129;40;21195;-65
2022/05/14 10:54:00;;;;;;;9.57;4.75;;;;;;;24.94;34.81;101906.56;3580920;40;20052;-65
2022/05/14 10:56:36;;;;;;;10.80;4.53;;;;;;;24.61;34.49;101910.94;3581350;40;20045;-65
2022/05/14 10:59:08;;;;;;;10.88;4.68;;;;;;;24.53;34.78;101882.38;3583600;40;20071;-65
2022/05/14 11:02:23;;;;;;;10.85;4.90;;;;;;;25.03;34.00;101900.06;3580491;40;20059;-65
2022/05/14 11:04:51;;;;;;;10.35;4.07;;;;;;;25.39;32.52;101897.16;3584412;40;20059;-65
2022/05/14 11:07:39;;;;;;;9.98;3.83;;;;;;;25.64;30.63;101898.13;3611604;22;20060;-64
2022/05/14 11:10:29;;;;;;;11.32;4.55;;;;;;;26.01;29.75;101902.38;3568072;40;20055;-64
2022/05/14 11:13:08;;;;;;;12.15;3.92;;;;;;;26.19;30.86;101907.72;3571649;40;20368;-63
2022/05/14 11:15:34;;;;;;;12.18;4.63;;;;;;;26.36;30.92;101920.50;3572862;40;20303;-64
2022/05/14 11:18:11;;;;;;;13.00;5.03;;;;;;;26.55;29.66;101911.91;3572904;40;20057;-64
2022/05/14 11:20:55;;;;;;;8.68;3.80;;;;;;;26.62;29.37;101904.66;3570001;40;20327;-64
2022/05/14 11:23:21;;;;;;;15.13;4.60;;;;;;;26.73;29.09;101899.78;3573474;40;20058;-65
2022/05/14 11:25:47;;;;;;;9.93;4.63;;;;;;;26.99;30.71;101905.97;3577159;40;20049;-64
2022/05/14 11:28:28;;;;;;;12.55;4.97;;;;;;;27.17;29.99;101907.66;3573431;40;20056;-64
2022/05/14 11:31:19;;;;;;;11.15;4.93;;;;;;;27.29;28.28;101904.31;3566347;40;20055;-63
2022/05/14 11:33:49;;;;;;;13.93;4.80;;;;;;;27.52;30.56;101896.09;3572674;40;20402;-64
2022/05/14 11:36:19;;;;;;;11.75;4.55;;;;;;;27.69;29.12;101896.03;3573377;40;20149;-64
2022/05/14 11:39:24;;;;;;;9.90;4.28;;;;;;;27.62;27.93;101895.03;3571079;40;20379;-64
2022/05/14 11:42:09;;;;;;;11.77;5.00;;;;;;;27.39;29.35;101901.34;3555163;40;20319;-64
2022/05/14 11:44:46;;;;;;;16.23;5.38;;;;;;;26.94;30.52;101896.47;3576921;40;20049;-63
2022/05/14 11:47:57;;;;;;;12.88;5.53;;;;;;;27.01;31.40;101901.09;3570396;40;20064;-64
2022/05/14 11:50:41;;;;;;;12.40;5.50;;;;;;;27.09;30.67;101905.75;3569449;40;20130;-64
2022/05/14 11:53:42;;;;;;;15.80;5.90;;;;;;;27.46;30.38;101893.19;3574106;40;20063;-64
2022/05/14 11:56:27;;;;;;;14.38;6.00;;;;;;;27.61;29.59;101898.84;3568769;40;20053;-64
2022/05/14 11:59:09;;;;;;;13.38;5.72;;;;;;;27.82;29.34;101901.84;3567597;40;20141;-64
2022/05/14 12:01:44;;;;;;;13.13;6.47;;;;;;;27.99;28.42;101899.84;3573765;40;20072;-64
2022/05/14 12:04:36;;;;;;;11.82;5.72;;;;;;;28.08;28.14;101903.41;3573202;40;20269;-64